createdAt,value
2018-08-28T00:02:13.745Z,4.28
2018-08-28T00:04:42.794Z,4.75
2018-08-28T00:07:12.009Z,4.50
2018-08-28T00:09:41.381Z,6.03
2018-08-28T00:12:10.028Z,6.65
2018-08-28T00:14:38.765Z,4.30
2018-08-28T00:17:07.684Z,4.65
2018-08-28T00:19:36.328Z,5.75
2018-08-28T00:22:05.513Z,5.40
2018-08-28T00:24:34.322Z,6.37
2018-08-28T00:27:03.010Z,4.03
2018-08-28T00:29:31.698Z,4.92
2018-08-28T00:32:01.395Z,8.60
2018-08-28T00:34:29.991Z,7.15
2018-08-28T00:36:58.585Z,6.33
2018-08-28T00:39:27.655Z,4.67
2018-08-28T00:41:56.281Z,6.78
2018-08-28T00:44:25.635Z,5.05
2018-08-28T00:46:54.340Z,6.20
2018-08-28T00:49:23.245Z,7.28
2018-08-28T00:51:52.544Z,5.95
2018-08-28T00:54:21.187Z,8.55
2018-08-28T00:56:49.785Z,5.50
2018-08-28T00:59:19.010Z,5.72
2018-08-28T01:01:47.902Z,6.60
2018-08-28T01:04:16.578Z,4.20
2018-08-28T01:06:45.142Z,8.10
2018-08-28T01:09:13.939Z,7.10
2018-08-28T01:11:42.603Z,7.85
2018-08-28T01:14:11.725Z,5.22
2018-08-28T01:16:40.507Z,5.70
2018-08-28T01:19:09.396Z,4.70
2018-08-28T01:21:38.035Z,8.03
2018-08-28T01:24:08.237Z,6.17
2018-08-28T01:26:36.918Z,7.50
2018-08-28T01:29:05.557Z,8.55
2018-08-28T01:31:34.246Z,4.92
2018-08-28T01:34:03.540Z,6.95
2018-08-28T01:36:32.181Z,11.15
2018-08-28T01:39:01.896Z,7.75
2018-08-28T01:41:30.533Z,6.72
2018-08-28T01:43:59.842Z,7.17
2018-08-28T01:46:29.168Z,8.68
2018-08-28T01:48:58.121Z,15.93
2018-08-28T01:51:26.758Z,4.10
2018-08-28T01:53:55.398Z,7.92
2018-08-28T01:56:24.077Z,7.08
2018-08-28T01:58:53.192Z,5.95
2018-08-28T02:01:22.582Z,5.92
2018-08-28T02:03:53.138Z,10.38
2018-08-28T02:06:21.684Z,4.87
2018-08-28T02:08:50.583Z,8.08
2018-08-28T02:11:19.845Z,9.68
2018-08-28T02:13:49.502Z,8.23
2018-08-28T02:16:18.375Z,6.62
2018-08-28T02:18:47.568Z,8.03
2018-08-28T02:21:16.238Z,6.20
2018-08-28T02:23:45.569Z,7.95
2018-08-28T02:26:14.335Z,7.72
2018-08-28T02:28:43.801Z,9.15
2018-08-28T02:31:13.274Z,8.75
2018-08-28T02:33:43.354Z,8.10
2018-08-28T02:36:12.183Z,5.67
2018-08-28T02:38:41.776Z,9.43
2018-08-28T02:41:11.227Z,7.58
2018-08-28T02:43:40.063Z,5.47
2018-08-28T02:46:09.509Z,7.45
2018-08-28T02:48:38.463Z,5.87
2018-08-28T02:51:07.577Z,8.60
2018-08-28T02:53:36.382Z,9.05
2018-08-28T02:56:05.829Z,7.58
2018-08-28T02:58:35.233Z,9.33
2018-08-28T03:01:04.003Z,5.50
2018-08-28T03:03:33.398Z,6.62
2018-08-28T03:06:02.525Z,8.15
2018-08-28T03:08:32.046Z,8.63
2018-08-28T03:11:01.146Z,10.65
2018-08-28T03:13:30.016Z,7.70
2018-08-28T03:15:59.265Z,5.70
2018-08-28T03:18:27.975Z,5.62
2018-08-28T03:20:57.160Z,9.68
2018-08-28T03:23:25.955Z,14.25
2018-08-28T03:25:55.234Z,13.75
2018-08-28T03:28:23.867Z,7.58
2018-08-28T03:30:53.239Z,5.75
2018-08-28T03:33:21.850Z,7.70
2018-08-28T03:35:50.973Z,6.62
2018-08-28T03:38:19.815Z,8.45
2018-08-28T03:40:48.751Z,6.37
2018-08-28T03:43:18.302Z,7.83
2018-08-28T03:45:47.889Z,7.83
2018-08-28T03:48:17.283Z,8.80
2018-08-28T03:50:46.062Z,13.25
2018-08-28T03:53:14.901Z,7.60
2018-08-28T03:55:44.459Z,9.53
2018-08-28T03:58:13.217Z,17.05
2018-08-28T04:00:43.076Z,5.78
2018-08-28T04:03:12.045Z,6.85
2018-08-28T04:05:41.638Z,7.50
2018-08-28T04:08:10.608Z,6.55
2018-08-28T04:10:39.926Z,12.23
2018-08-28T04:13:08.742Z,8.35
2018-08-28T04:15:37.464Z,6.10
2018-08-28T04:18:06.378Z,12.33
2018-08-28T04:20:35.547Z,4.95
2018-08-28T04:23:04.503Z,7.25
2018-08-28T04:25:33.586Z,13.62
2018-08-28T04:28:02.300Z,5.80
2018-08-28T04:30:31.817Z,7.50
2018-08-28T04:33:00.744Z,11.12
2018-08-28T04:35:30.077Z,8.93
2018-08-28T04:37:59.365Z,8.18
2018-08-28T04:40:28.336Z,8.93
2018-08-28T04:42:57.721Z,4.67
2018-08-28T04:45:26.797Z,7.03
2018-08-28T04:47:56.214Z,6.90
2018-08-28T04:50:25.637Z,7.90
2018-08-28T04:52:54.546Z,7.70
2018-08-28T04:55:23.985Z,9.30
2018-08-28T04:57:53.261Z,13.20
2018-08-28T05:00:22.191Z,12.82
2018-08-28T05:02:51.841Z,7.83
2018-08-28T05:05:21.377Z,13.48
2018-08-28T05:07:50.417Z,11.55
2018-08-28T05:10:20.170Z,8.88
2018-08-28T05:12:49.650Z,7.97
2018-08-28T05:15:18.624Z,11.48
2018-08-28T05:17:48.188Z,14.20
2018-08-28T05:20:17.646Z,9.18
2018-08-28T05:22:46.725Z,9.85
2018-08-28T05:25:16.521Z,8.73
2018-08-28T05:27:46.221Z,12.15
2018-08-28T05:30:15.567Z,12.03
2018-08-28T05:32:44.314Z,7.15
2018-08-28T05:35:14.220Z,9.60
2018-08-28T05:37:43.706Z,11.28
2018-08-28T05:40:12.728Z,11.05
2018-08-28T05:42:42.519Z,11.22
2018-08-28T05:45:12.017Z,8.65
2018-08-28T05:47:41.543Z,13.88
2018-08-28T05:50:10.441Z,13.60
2018-08-28T05:52:40.135Z,8.00
2018-08-28T05:55:09.621Z,7.95
2018-08-28T05:57:38.577Z,9.25
2018-08-28T06:00:08.073Z,10.32
2018-08-28T06:02:37.438Z,12.45
2018-08-28T06:05:06.539Z,6.17
2018-08-28T06:07:36.001Z,7.95
2018-08-28T06:10:05.481Z,7.92
2018-08-28T06:12:34.545Z,12.10
2018-08-28T06:15:04.569Z,9.83
2018-08-28T06:17:34.426Z,15.25
2018-08-28T06:20:03.759Z,10.23
2018-08-28T06:22:32.480Z,8.53
2018-08-28T06:25:01.516Z,8.98
2018-08-28T06:27:30.037Z,11.97
2018-08-28T06:29:59.436Z,7.67
2018-08-28T06:32:29.012Z,8.73
2018-08-28T06:34:57.705Z,6.60
2018-08-28T06:37:27.669Z,11.97
2018-08-28T06:39:56.708Z,12.63
2018-08-28T06:42:26.549Z,8.48
2018-08-28T06:44:55.548Z,12.80
2018-08-28T06:47:24.289Z,8.55
2018-08-28T06:49:53.704Z,11.73
2018-08-28T06:52:22.730Z,10.43
2018-08-28T06:54:51.570Z,11.80
2018-08-28T06:57:20.426Z,7.37
2018-08-28T06:59:50.204Z,6.40
2018-08-28T07:02:19.519Z,17.77
2018-08-28T07:04:48.542Z,15.43
2018-08-28T07:07:17.961Z,10.63
2018-08-28T07:09:47.283Z,12.15
2018-08-28T07:12:16.343Z,13.22
2018-08-28T07:14:45.459Z,9.63
2018-08-28T07:17:14.040Z,8.23
2018-08-28T07:19:43.335Z,8.60
2018-08-28T07:22:12.060Z,8.00
2018-08-28T07:24:41.462Z,7.83
2018-08-28T07:27:10.537Z,14.03
2018-08-28T07:29:39.951Z,13.65
2018-08-28T07:32:09.380Z,14.05
2018-08-28T07:34:39.258Z,8.03
2018-08-28T07:37:08.696Z,7.60
2018-08-28T07:39:38.162Z,8.33
2018-08-28T07:42:07.636Z,6.05
2018-08-28T07:44:36.403Z,10.68
2018-08-28T07:47:05.719Z,8.53
2018-08-28T07:49:34.639Z,9.70
2018-08-28T07:52:04.217Z,7.37
2018-08-28T07:54:33.690Z,10.35
2018-08-28T07:57:02.725Z,9.18
2018-08-28T07:59:32.317Z,15.70
2018-08-28T08:02:01.871Z,8.83
2018-08-28T08:04:31.431Z,15.60
2018-08-28T08:07:00.305Z,7.53
2018-08-28T08:09:29.267Z,8.93
2018-08-28T08:11:58.277Z,6.10
2018-08-28T08:14:27.929Z,10.90
2018-08-28T08:16:57.876Z,10.63
2018-08-28T08:19:27.334Z,9.40
2018-08-28T08:21:56.528Z,10.43
2018-08-28T08:24:26.257Z,13.20
2018-08-28T08:26:54.991Z,11.75
2018-08-28T08:29:24.378Z,6.55
2018-08-28T08:31:53.970Z,10.95
2018-08-28T08:34:23.341Z,9.03
2018-08-28T08:36:52.266Z,6.72
2018-08-28T08:39:21.736Z,6.92
2018-08-28T08:41:50.868Z,9.05
2018-08-28T08:44:20.054Z,12.07
2018-08-28T08:46:49.454Z,9.30
2018-08-28T08:49:18.869Z,9.73
2018-08-28T08:51:49.120Z,7.97
2018-08-28T08:54:18.245Z,7.83
2018-08-28T08:56:47.974Z,9.63
2018-08-28T08:59:17.548Z,7.30
2018-08-28T09:01:46.248Z,6.40
2018-08-28T09:04:15.607Z,5.72
2018-08-28T09:06:44.484Z,7.33
2018-08-28T09:09:13.843Z,7.97
2018-08-28T09:11:43.441Z,7.58
2018-08-28T09:14:12.391Z,12.33
2018-08-28T09:16:41.886Z,10.18
2018-08-28T09:19:11.964Z,8.68
2018-08-28T09:21:41.463Z,8.48
2018-08-28T09:24:10.433Z,11.15
2018-08-28T09:26:40.033Z,7.30
2018-08-28T09:29:09.289Z,6.90
2018-08-28T09:31:38.537Z,9.00
2018-08-28T09:34:08.291Z,10.85
2018-08-28T09:36:37.629Z,20.08
2018-08-28T09:39:07.477Z,8.63
2018-08-28T09:41:36.416Z,13.80
2018-08-28T09:44:06.105Z,10.15
2018-08-28T09:46:35.598Z,10.00
2018-08-28T09:49:04.744Z,11.30
2018-08-28T09:51:34.183Z,10.50
2018-08-28T09:54:03.528Z,7.87
2018-08-28T09:56:32.428Z,8.63
2018-08-28T09:59:02.150Z,10.13
2018-08-28T10:01:36.834Z,9.50
2018-08-28T10:04:06.423Z,15.38
2018-08-28T10:06:35.968Z,18.35
2018-08-28T10:09:07.015Z,10.88
2018-08-28T10:11:36.364Z,10.38
2018-08-28T10:14:05.113Z,10.80
2018-08-28T10:16:34.342Z,8.10
2018-08-28T10:19:04.267Z,10.40
2018-08-28T10:21:33.879Z,9.15
2018-08-28T10:24:03.367Z,9.18
2018-08-28T10:26:32.119Z,11.93
2018-08-28T10:29:01.607Z,11.78
2018-08-28T10:31:30.633Z,10.28
2018-08-28T10:33:59.924Z,8.90
2018-08-28T10:36:29.335Z,9.35
2018-08-28T10:38:58.326Z,11.10
2018-08-28T10:41:28.420Z,9.43
2018-08-28T10:43:58.022Z,13.72
2018-08-28T10:46:27.987Z,10.30
2018-08-28T10:48:58.058Z,10.95
2018-08-28T10:51:26.848Z,11.53
2018-08-28T10:53:56.419Z,10.25
2018-08-28T10:56:25.862Z,10.55
2018-08-28T10:58:55.235Z,16.32
2018-08-28T11:01:24.370Z,21.73
2018-08-28T11:03:53.982Z,12.58
2018-08-28T11:06:23.201Z,10.00
2018-08-28T11:08:52.377Z,15.90
2018-08-28T11:11:21.913Z,14.78
2018-08-28T11:13:51.790Z,9.65
2018-08-28T11:16:21.867Z,11.80
2018-08-28T11:18:50.677Z,14.05
2018-08-28T11:21:20.240Z,15.80
2018-08-28T11:23:49.650Z,10.72
2018-08-28T11:26:18.481Z,15.10
2018-08-28T11:28:47.401Z,13.15
2018-08-28T11:31:16.068Z,12.70
2018-08-28T11:33:45.524Z,14.13
2018-08-28T11:36:14.177Z,11.20
2018-08-28T11:38:43.320Z,10.75
2018-08-28T11:41:12.726Z,10.05
2018-08-28T11:43:42.480Z,12.03
2018-08-28T11:46:12.306Z,13.27
2018-08-28T11:48:42.678Z,10.93
2018-08-28T11:51:11.582Z,11.33
2018-08-28T11:53:40.265Z,9.75
2018-08-28T11:56:09.789Z,10.10
2018-08-28T11:58:38.777Z,10.18
2018-08-28T12:01:08.599Z,9.88
2018-08-28T12:03:38.307Z,12.63
2018-08-28T12:06:07.700Z,14.20
2018-08-28T12:08:36.436Z,15.88
2018-08-28T12:11:05.465Z,12.55
2018-08-28T12:13:34.381Z,17.80
2018-08-28T12:16:04.212Z,12.13
2018-08-28T12:18:33.908Z,20.75
2018-08-28T12:21:03.488Z,11.55
2018-08-28T12:23:32.340Z,11.48
2018-08-28T12:26:01.158Z,13.80
2018-08-28T12:28:29.944Z,10.95
2018-08-28T12:30:58.737Z,9.55
2018-08-28T12:33:28.341Z,15.25
2018-08-28T12:35:57.445Z,12.13
2018-08-28T12:38:27.141Z,13.25
2018-08-28T12:40:56.338Z,9.83
2018-08-28T12:43:26.245Z,17.05
2018-08-28T12:45:55.653Z,13.28
2018-08-28T12:48:24.577Z,8.90
2018-08-28T12:50:54.657Z,12.25
2018-08-28T12:53:24.602Z,11.25
2018-08-28T12:55:54.174Z,11.85
2018-08-28T12:58:23.784Z,10.00
2018-08-28T13:00:52.666Z,10.82
2018-08-28T13:03:22.478Z,11.83
2018-08-28T13:05:52.328Z,21.05
2018-08-28T13:08:21.771Z,13.08
2018-08-28T13:10:50.575Z,10.95
2018-08-28T13:13:19.466Z,10.80
2018-08-28T13:15:49.112Z,10.08
2018-08-28T13:18:19.234Z,9.68
2018-08-28T13:20:47.925Z,13.90
2018-08-28T13:23:16.654Z,24.47
2018-08-28T13:25:46.784Z,28.92
2018-08-28T13:28:16.099Z,10.38
2018-08-28T13:30:45.757Z,9.23
2018-08-28T13:33:14.603Z,13.45
2018-08-28T13:35:44.100Z,14.20
2018-08-28T13:38:13.526Z,11.85
2018-08-28T13:40:42.334Z,20.02
2018-08-28T13:43:11.685Z,10.15
2018-08-28T13:45:40.490Z,9.38
2018-08-28T13:48:09.951Z,11.50
2018-08-28T13:50:39.601Z,9.50
2018-08-28T13:53:08.590Z,14.38
2018-08-28T13:55:38.461Z,11.78
2018-08-28T13:58:08.047Z,12.00
2018-08-28T14:00:37.965Z,10.65
2018-08-28T14:03:10.411Z,9.10
2018-08-28T14:05:40.097Z,10.50
2018-08-28T14:08:10.448Z,11.40
2018-08-28T14:10:40.036Z,11.43
2018-08-28T14:13:09.596Z,9.55
2018-08-28T14:15:38.303Z,14.30
2018-08-28T14:18:08.278Z,8.15
2018-08-28T14:20:37.482Z,11.12
2018-08-28T14:23:06.447Z,11.08
2018-08-28T14:25:35.223Z,15.10
2018-08-28T14:28:04.080Z,15.45
2018-08-28T14:30:33.387Z,9.93
2018-08-28T14:33:02.253Z,16.07
2018-08-28T14:35:31.883Z,10.58
2018-08-28T14:38:01.318Z,11.38
2018-08-28T14:40:30.236Z,13.32
2018-08-28T14:42:59.992Z,8.90
2018-08-28T14:45:29.783Z,8.95
2018-08-28T14:47:58.459Z,9.35
2018-08-28T14:50:28.810Z,8.98
2018-08-28T14:52:58.166Z,12.03
2018-08-28T14:55:27.408Z,24.70
2018-08-28T14:57:56.319Z,9.43
2018-08-28T15:00:25.704Z,9.30
2018-08-28T15:02:54.513Z,9.40
2018-08-28T15:05:24.170Z,10.58
2018-08-28T15:07:53.721Z,8.15
2018-08-28T15:10:22.593Z,8.68
2018-08-28T15:12:52.051Z,10.85
2018-08-28T15:15:20.673Z,8.28
2018-08-28T15:17:50.319Z,9.48
2018-08-28T15:20:18.941Z,9.73
2018-08-28T15:22:48.839Z,8.55
2018-08-28T15:25:19.617Z,10.60
2018-08-28T15:27:49.452Z,17.67
2018-08-28T15:30:18.597Z,20.70
2018-08-28T15:32:48.352Z,9.88
2018-08-28T15:35:18.363Z,10.72
2018-08-28T15:37:46.990Z,14.40
2018-08-28T15:40:16.627Z,11.73
2018-08-28T15:42:45.837Z,15.90
2018-08-28T15:45:14.913Z,14.33
2018-08-28T15:47:44.373Z,11.25
2018-08-28T15:50:13.991Z,11.65
2018-08-28T15:52:44.014Z,11.50
2018-08-28T15:55:13.205Z,11.68
2018-08-28T15:57:42.164Z,11.38
2018-08-28T16:00:11.002Z,10.15
2018-08-28T16:02:40.431Z,8.13
2018-08-28T16:05:09.044Z,10.80
2018-08-28T16:07:37.795Z,9.83
2018-08-28T16:10:06.438Z,11.63
2018-08-28T16:12:35.206Z,8.18
2018-08-28T16:15:04.049Z,7.55
2018-08-28T16:17:33.766Z,11.43
2018-08-28T16:20:03.285Z,15.32
2018-08-28T16:22:38.115Z,10.80
2018-08-28T16:25:07.219Z,8.13
2018-08-28T16:27:36.555Z,8.58
2018-08-28T16:30:06.318Z,9.28
2018-08-28T16:32:35.802Z,20.32
2018-08-28T16:35:05.158Z,9.05
2018-08-28T16:37:34.810Z,13.05
2018-08-28T16:40:05.672Z,8.58
2018-08-28T16:42:34.575Z,9.68
2018-08-28T16:45:04.225Z,7.80
2018-08-28T16:47:33.105Z,16.10
2018-08-28T16:50:02.294Z,16.02
2018-08-28T16:52:31.946Z,8.95
2018-08-28T16:55:00.594Z,11.83
2018-08-28T16:57:29.900Z,13.18
2018-08-28T16:59:58.732Z,14.83
2018-08-28T17:02:27.541Z,10.55
2018-08-28T17:04:56.718Z,8.65
2018-08-28T17:07:26.123Z,18.73
2018-08-28T17:09:55.614Z,22.02
2018-08-28T17:12:24.509Z,20.37
2018-08-28T17:14:54.154Z,11.28
2018-08-28T17:17:23.740Z,9.98
2018-08-28T17:19:52.421Z,19.10
2018-08-28T17:22:21.125Z,41.13
2018-08-28T17:24:50.024Z,38.85
2018-08-28T17:27:19.982Z,13.53
2018-08-28T17:29:49.358Z,17.45
2018-08-28T17:32:18.303Z,21.87
2018-08-28T17:34:47.402Z,19.27
2018-08-28T17:37:16.298Z,18.17
2018-08-28T17:39:45.613Z,21.95
2018-08-28T17:42:14.451Z,14.75
2018-08-28T17:44:44.014Z,15.78
2018-08-28T17:47:14.054Z,9.50
2018-08-28T17:49:43.637Z,18.55
2018-08-28T17:52:13.006Z,19.20
2018-08-28T17:54:42.666Z,12.30
2018-08-28T17:57:13.034Z,12.45
2018-08-28T17:59:43.062Z,12.60
2018-08-28T18:02:12.812Z,14.40
2018-08-28T18:04:42.517Z,11.88
2018-08-28T18:07:12.442Z,15.65
2018-08-28T18:09:42.342Z,14.00
2018-08-28T18:12:11.547Z,11.50
2018-08-28T18:14:41.142Z,9.75
2018-08-28T18:17:11.405Z,15.18
2018-08-28T18:19:40.334Z,12.60
2018-08-28T18:22:09.720Z,14.47
2018-08-28T18:24:38.521Z,13.50
2018-08-28T18:27:07.907Z,11.12
2018-08-28T18:29:37.927Z,12.68
2018-08-28T18:32:08.534Z,11.68
2018-08-28T18:34:37.878Z,10.72
2018-08-28T18:37:06.677Z,12.28
2018-08-28T18:39:36.834Z,10.53
2018-08-28T18:42:06.148Z,14.90
2018-08-28T18:44:35.501Z,11.63
2018-08-28T18:47:04.418Z,14.30
2018-08-28T18:49:33.368Z,11.55
2018-08-28T18:52:02.162Z,11.35
2018-08-28T18:54:31.690Z,15.10
2018-08-28T18:57:00.330Z,18.77
2018-08-28T18:59:29.209Z,12.23
2018-08-28T19:01:57.912Z,15.30
2018-08-28T19:04:27.253Z,19.70
2018-08-28T19:06:55.996Z,17.45
2018-08-28T19:09:25.347Z,14.23
2018-08-28T19:11:54.056Z,19.00
2018-08-28T19:14:23.658Z,27.10
2018-08-28T19:16:52.385Z,28.60
2018-08-28T19:19:21.518Z,25.25
2018-08-28T19:21:50.269Z,22.55
2018-08-28T19:24:19.861Z,18.75
2018-08-28T19:26:49.134Z,27.27
2018-08-28T19:29:18.091Z,19.10
2018-08-28T19:31:47.119Z,20.45
2018-08-28T19:34:16.429Z,20.62
2018-08-28T19:36:45.842Z,19.35
2018-08-28T19:39:14.532Z,25.72
2018-08-28T19:41:43.881Z,14.07
2018-08-28T19:44:12.839Z,14.87
2018-08-28T19:46:41.519Z,15.35
2018-08-28T19:49:10.509Z,16.23
2018-08-28T19:51:39.895Z,17.80
2018-08-28T19:54:08.900Z,14.07
2018-08-28T19:56:38.452Z,10.50
2018-08-28T19:59:07.426Z,16.00
2018-08-28T20:01:37.004Z,18.73
2018-08-28T20:04:06.433Z,15.30
2018-08-28T20:06:36.083Z,12.85
2018-08-28T20:09:05.748Z,13.25
2018-08-28T20:11:34.569Z,14.87
2018-08-28T20:14:03.524Z,10.08
2018-08-28T20:16:32.156Z,13.32
2018-08-28T20:19:02.328Z,12.37
2018-08-28T20:21:32.055Z,14.13
2018-08-28T20:24:01.663Z,17.25
2018-08-28T20:26:30.280Z,11.48
2018-08-28T20:28:59.625Z,13.15
2018-08-28T20:31:28.405Z,14.50
2018-08-28T20:33:58.128Z,11.18
2018-08-28T20:36:27.741Z,16.00
2018-08-28T20:38:56.868Z,18.90
2018-08-28T20:41:26.677Z,15.75
2018-08-28T20:43:56.187Z,18.12
2018-08-28T20:46:25.727Z,18.55
2018-08-28T20:48:54.548Z,15.83
2018-08-28T20:51:24.321Z,15.20
2018-08-28T20:53:54.073Z,14.20
2018-08-28T20:56:24.241Z,15.28
2018-08-28T20:58:53.785Z,16.40
2018-08-28T21:01:22.502Z,15.72
2018-08-28T21:03:52.727Z,16.07
2018-08-28T21:06:21.707Z,15.68
2018-08-28T21:08:50.730Z,16.55
2018-08-28T21:11:19.552Z,20.10
2018-08-28T21:13:48.328Z,20.65
2018-08-28T21:16:17.404Z,15.95
2018-08-28T21:18:46.444Z,19.90
2018-08-28T21:21:15.699Z,17.25
2018-08-28T21:23:44.631Z,14.58
2018-08-28T21:26:14.305Z,22.48
2018-08-28T21:28:43.093Z,21.37
2018-08-28T21:31:11.758Z,21.87
2018-08-28T21:33:41.195Z,18.00
2018-08-28T21:36:10.646Z,18.48
2018-08-28T21:38:39.412Z,18.90
2018-08-28T21:41:08.279Z,22.25
2018-08-28T21:43:37.622Z,17.73
2018-08-28T21:46:06.850Z,17.25
2018-08-28T21:48:36.397Z,22.20
2018-08-28T21:51:05.944Z,17.57
2018-08-28T21:53:34.981Z,18.73
2018-08-28T21:56:04.507Z,17.05
2018-08-28T21:58:33.976Z,17.23
2018-08-28T22:01:08.732Z,20.32
2018-08-28T22:03:39.054Z,20.95
2018-08-28T22:06:12.621Z,18.98
2018-08-28T22:08:42.014Z,16.77
2018-08-28T22:11:10.813Z,20.75
2018-08-28T22:13:40.923Z,20.65
2018-08-28T22:16:11.279Z,18.75
2018-08-28T22:18:40.028Z,16.62
2018-08-28T22:21:09.001Z,16.90
2018-08-28T22:23:38.655Z,20.02
2018-08-28T22:26:08.318Z,19.87
2018-08-28T22:28:41.579Z,13.30
2018-08-28T22:31:14.580Z,15.72
2018-08-28T22:33:44.841Z,19.00
2018-08-28T22:36:14.981Z,20.05
2018-08-28T22:38:44.555Z,15.55
2018-08-28T22:41:14.255Z,12.47
2018-08-28T22:43:44.097Z,14.35
2018-08-28T22:46:13.833Z,15.43
2018-08-28T22:48:42.686Z,13.45
2018-08-28T22:51:12.132Z,13.15
2018-08-28T22:53:42.837Z,15.63
2018-08-28T22:56:12.121Z,14.85
2018-08-28T22:58:41.614Z,15.08
2018-08-28T23:01:10.473Z,15.63
2018-08-28T23:03:39.979Z,19.87
2018-08-28T23:06:09.148Z,16.30
2018-08-28T23:08:38.722Z,14.95
2018-08-28T23:11:08.089Z,16.37
2018-08-28T23:13:37.909Z,13.72
2018-08-28T23:16:07.491Z,14.30
2018-08-28T23:18:36.479Z,14.43
2018-08-28T23:21:06.176Z,14.70
2018-08-28T23:23:35.762Z,15.43
2018-08-28T23:26:05.121Z,13.18
2018-08-28T23:28:34.001Z,13.50
2018-08-28T23:31:02.849Z,15.85
2018-08-28T23:33:32.429Z,14.47
2018-08-28T23:36:02.050Z,12.98
2018-08-28T23:38:31.490Z,15.68
2018-08-28T23:41:00.375Z,15.10
2018-08-28T23:43:29.829Z,16.85
2018-08-28T23:45:58.756Z,13.95
2018-08-28T23:48:28.208Z,16.12
2018-08-28T23:50:57.960Z,13.30
2018-08-28T23:53:26.742Z,16.82
2018-08-28T23:55:56.196Z,15.90
2018-08-28T23:58:25.984Z,19.45
